ACA418 CYYZ-CYUL
Flight info
| Callsign | ACA418 |
|---|---|
| Flight time | 0h 53m |
| Altitude | 35000 |
| Route | DEDKI5 MIGLO HABBS7 |
| Aircraft | A320/M-SDE3FGHIRWY/LB1 |
Departure
| Time | 2026-05-04 23:01 |
|---|---|
| Airport | Toronto Pearson International Airport (CYYZ) |
Arrival
| Time | 2026-05-04 23:55 |
|---|---|
| Airport | Montreal / Pierre Elliott Trudeau International Airport (CYUL) |
| Time | Latitude | Longitude | Altitude | Speed | Heading |
|---|---|---|---|---|---|
| 2026-05-04 22:17 | 43.68108 | -79.61552 | 571 ft | 0 kts | 98° |
| 2026-05-04 22:47 | 43.68108 | -79.61554 | 561 ft | 2 kts | 98° |
| 2026-05-04 22:47 | 43.68112 | -79.61588 | 571 ft | 4 kts | 100° |
| 2026-05-04 22:47 | 43.68117 | -79.61625 | 568 ft | 4 kts | 102° |
| 2026-05-04 22:48 | 43.68124 | -79.61661 | 568 ft | 4 kts | 106° |
| 2026-05-04 22:48 | 43.68133 | -79.61696 | 570 ft | 4 kts | 118° |
| 2026-05-04 22:48 | 43.68148 | -79.61722 | 565 ft | 4 kts | 176° |
| 2026-05-04 22:48 | 43.68157 | -79.61721 | 567 ft | 1 kts | 197° |
| 2026-05-04 22:52 | 43.68156 | -79.61721 | 561 ft | 1 kts | 197° |
| 2026-05-04 22:53 | 43.68143 | -79.61727 | 568 ft | 4 kts | 198° |
| 2026-05-04 22:53 | 43.68107 | -79.61759 | 563 ft | 8 kts | 222° |
| 2026-05-04 22:53 | 43.68059 | -79.61827 | 563 ft | 11 kts | 227° |
| 2026-05-04 22:53 | 43.68003 | -79.61916 | 569 ft | 13 kts | 238° |
| 2026-05-04 22:54 | 43.67965 | -79.62031 | 566 ft | 13 kts | 231° |
| 2026-05-04 22:54 | 43.67904 | -79.62118 | 570 ft | 12 kts | 226° |
| 2026-05-04 22:54 | 43.67838 | -79.62126 | 569 ft | 11 kts | 144° |
| 2026-05-04 22:54 | 43.67779 | -79.62053 | 565 ft | 12 kts | 138° |
| 2026-05-04 22:55 | 43.67718 | -79.61974 | 568 ft | 13 kts | 136° |
| 2026-05-04 22:55 | 43.67648 | -79.61882 | 566 ft | 15 kts | 137° |
| 2026-05-04 22:55 | 43.67572 | -79.61776 | 567 ft | 16 kts | 138° |
| 2026-05-04 22:55 | 43.67480 | -79.61665 | 570 ft | 19 kts | 137° |
| 2026-05-04 22:56 | 43.67379 | -79.61533 | 565 ft | 21 kts | 136° |
| 2026-05-04 22:56 | 43.67278 | -79.61399 | 564 ft | 20 kts | 136° |
| 2026-05-04 22:56 | 43.67228 | -79.61286 | 563 ft | 13 kts | 81° |
| 2026-05-04 22:56 | 43.67283 | -79.61173 | 563 ft | 16 kts | 53° |
| 2026-05-04 22:57 | 43.67347 | -79.61054 | 563 ft | 15 kts | 52° |
| 2026-05-04 22:57 | 43.67406 | -79.60949 | 563 ft | 15 kts | 54° |
| 2026-05-04 22:57 | 43.67484 | -79.60812 | 565 ft | 19 kts | 47° |
| 2026-05-04 22:57 | 43.67568 | -79.60689 | 571 ft | 17 kts | 46° |
| 2026-05-04 22:58 | 43.67644 | -79.60578 | 561 ft | 15 kts | 46° |
| 2026-05-04 22:58 | 43.67712 | -79.60479 | 561 ft | 13 kts | 46° |
| 2026-05-04 22:58 | 43.67785 | -79.60374 | 567 ft | 18 kts | 46° |
| 2026-05-04 22:58 | 43.67866 | -79.60256 | 565 ft | 15 kts | 47° |
| 2026-05-04 22:59 | 43.67932 | -79.60159 | 565 ft | 13 kts | 46° |
| 2026-05-04 22:59 | 43.67996 | -79.60067 | 562 ft | 15 kts | 46° |
| 2026-05-04 22:59 | 43.68066 | -79.59964 | 565 ft | 14 kts | 50° |
| 2026-05-04 22:59 | 43.68050 | -79.59850 | 562 ft | 13 kts | 134° |
| 2026-05-04 23:00 | 43.67980 | -79.59758 | 565 ft | 14 kts | 137° |
| 2026-05-04 23:00 | 43.67915 | -79.59721 | 565 ft | 10 kts | 195° |
| 2026-05-04 23:00 | 43.67863 | -79.59787 | 561 ft | 11 kts | 227° |
| 2026-05-04 23:00 | 43.67717 | -79.59999 | 568 ft | 61 kts | 226° |
| 2026-05-04 23:01 | 43.67283 | -79.60625 | 563 ft | 117 kts | 226° |
| 2026-05-04 23:01 | 43.66637 | -79.61564 | 800 ft | 140 kts | 225° |
| 2026-05-04 23:01 | 43.65951 | -79.62516 | 1339 ft | 142 kts | 226° |
| 2026-05-04 23:01 | 43.65254 | -79.63505 | 1941 ft | 145 kts | 230° |
| 2026-05-04 23:02 | 43.64556 | -79.64536 | 2631 ft | 148 kts | 233° |
| 2026-05-04 23:02 | 43.63801 | -79.65606 | 3062 ft | 166 kts | 227° |
| 2026-05-04 23:02 | 43.62849 | -79.66740 | 3306 ft | 196 kts | 227° |
| 2026-05-04 23:02 | 43.61754 | -79.68079 | 3729 ft | 223 kts | 227° |
| 2026-05-04 23:03 | 43.60542 | -79.69587 | 4237 ft | 245 kts | 227° |
| 2026-05-04 23:03 | 43.59076 | -79.70781 | 5319 ft | 254 kts | 205° |
| 2026-05-04 23:03 | 43.57259 | -79.70999 | 6226 ft | 275 kts | 180° |
| 2026-05-04 23:03 | 43.55400 | -79.70094 | 7070 ft | 296 kts | 155° |
| 2026-05-04 23:04 | 43.53827 | -79.68164 | 7909 ft | 312 kts | 133° |
| 2026-05-04 23:04 | 43.52615 | -79.65645 | 8787 ft | 319 kts | 123° |
| 2026-05-04 23:04 | 43.51587 | -79.62906 | 9639 ft | 325 kts | 115° |
| 2026-05-04 23:04 | 43.51040 | -79.59863 | 10407 ft | 330 kts | 95° |
| 2026-05-04 23:05 | 43.50988 | -79.56698 | 11245 ft | 330 kts | 83° |
| 2026-05-04 23:05 | 43.51330 | -79.53566 | 11905 ft | 338 kts | 73° |
| 2026-05-04 23:05 | 43.51900 | -79.50315 | 12182 ft | 358 kts | 72° |
| 2026-05-04 23:05 | 43.52518 | -79.46954 | 12836 ft | 365 kts | 71° |
| 2026-05-04 23:06 | 43.53151 | -79.43602 | 13609 ft | 367 kts | 71° |
| 2026-05-04 23:06 | 43.53829 | -79.40209 | 14301 ft | 369 kts | 69° |
| 2026-05-04 23:06 | 43.54578 | -79.36806 | 14953 ft | 373 kts | 68° |
| 2026-05-04 23:06 | 43.55368 | -79.33387 | 15598 ft | 376 kts | 68° |
| 2026-05-04 23:07 | 43.56177 | -79.29930 | 16251 ft | 380 kts | 69° |
| 2026-05-04 23:07 | 43.56723 | -79.27579 | 16685 ft | 383 kts | 69° |
| 2026-05-04 23:07 | 43.57529 | -79.24065 | 17331 ft | 387 kts | 69° |
| 2026-05-04 23:07 | 43.58331 | -79.20512 | 17964 ft | 390 kts | 70° |
| 2026-05-04 23:08 | 43.59393 | -79.15740 | 18708 ft | 395 kts | 70° |
| 2026-05-04 23:08 | 43.59935 | -79.13288 | 19088 ft | 397 kts | 70° |
| 2026-05-04 23:08 | 43.60731 | -79.09667 | 19639 ft | 400 kts | 70° |
| 2026-05-04 23:08 | 43.61552 | -79.05936 | 20216 ft | 404 kts | 70° |
| 2026-05-04 23:09 | 43.62363 | -79.02256 | 20756 ft | 407 kts | 70° |
| 2026-05-04 23:09 | 43.63192 | -78.98500 | 21312 ft | 411 kts | 69° |
| 2026-05-04 23:09 | 43.64039 | -78.94661 | 21874 ft | 414 kts | 69° |
| 2026-05-04 23:09 | 43.64880 | -78.90838 | 22406 ft | 418 kts | 69° |
| 2026-05-04 23:10 | 43.65714 | -78.87037 | 22944 ft | 421 kts | 69° |
| 2026-05-04 23:10 | 43.66565 | -78.83147 | 23433 ft | 425 kts | 69° |
| 2026-05-04 23:10 | 43.67420 | -78.79230 | 23884 ft | 428 kts | 69° |
| 2026-05-04 23:10 | 43.68281 | -78.75284 | 24312 ft | 430 kts | 69° |
| 2026-05-04 23:11 | 43.69210 | -78.71291 | 24744 ft | 431 kts | 64° |
| 2026-05-04 23:11 | 43.70378 | -78.67474 | 25164 ft | 432 kts | 63° |
| 2026-05-04 23:11 | 43.71563 | -78.63651 | 25581 ft | 435 kts | 63° |
| 2026-05-04 23:11 | 43.72755 | -78.59796 | 25978 ft | 437 kts | 63° |
| 2026-05-04 23:12 | 43.73950 | -78.55916 | 26377 ft | 440 kts | 63° |
| 2026-05-04 23:12 | 43.75145 | -78.52018 | 26768 ft | 442 kts | 63° |
| 2026-05-04 23:12 | 43.76347 | -78.48090 | 27157 ft | 444 kts | 63° |
| 2026-05-04 23:12 | 43.77554 | -78.44139 | 27527 ft | 447 kts | 63° |
| 2026-05-04 23:13 | 43.78765 | -78.40171 | 27896 ft | 449 kts | 63° |
| 2026-05-04 23:13 | 43.79983 | -78.36172 | 28263 ft | 452 kts | 63° |
| 2026-05-04 23:13 | 43.81207 | -78.32156 | 28623 ft | 454 kts | 63° |
| 2026-05-04 23:13 | 43.82438 | -78.28115 | 28953 ft | 457 kts | 63° |
| 2026-05-04 23:14 | 43.83675 | -78.24050 | 29291 ft | 459 kts | 63° |
| 2026-05-04 23:14 | 43.84915 | -78.19965 | 29625 ft | 461 kts | 64° |
| 2026-05-04 23:14 | 43.86157 | -78.15854 | 29915 ft | 464 kts | 64° |
| 2026-05-04 23:14 | 43.87404 | -78.11717 | 30165 ft | 466 kts | 64° |
| 2026-05-04 23:15 | 43.88654 | -78.07556 | 30420 ft | 468 kts | 64° |
| 2026-05-04 23:15 | 43.89909 | -78.03378 | 30675 ft | 470 kts | 64° |
| 2026-05-04 23:15 | 43.91170 | -77.99185 | 30925 ft | 472 kts | 64° |
| 2026-05-04 23:15 | 43.92439 | -77.94970 | 31139 ft | 474 kts | 64° |
| 2026-05-04 23:16 | 43.93706 | -77.90749 | 31461 ft | 474 kts | 64° |
| 2026-05-04 23:16 | 43.94969 | -77.86525 | 31786 ft | 474 kts | 64° |
| 2026-05-04 23:16 | 43.96230 | -77.82296 | 32124 ft | 474 kts | 64° |
| 2026-05-04 23:16 | 43.97485 | -77.78071 | 32434 ft | 474 kts | 64° |
| 2026-05-04 23:17 | 43.98743 | -77.73838 | 32756 ft | 474 kts | 64° |
| 2026-05-04 23:17 | 43.99998 | -77.69612 | 33070 ft | 474 kts | 64° |
| 2026-05-04 23:17 | 44.01254 | -77.65383 | 33397 ft | 474 kts | 64° |
| 2026-05-04 23:17 | 44.02510 | -77.61153 | 33702 ft | 474 kts | 64° |
| 2026-05-04 23:18 | 44.03766 | -77.56918 | 33968 ft | 474 kts | 64° |
| 2026-05-04 23:18 | 44.05018 | -77.52684 | 34225 ft | 474 kts | 64° |
| 2026-05-04 23:18 | 44.06270 | -77.48447 | 34469 ft | 474 kts | 64° |
| 2026-05-04 23:18 | 44.07554 | -77.44216 | 34640 ft | 474 kts | 60° |
| 2026-05-04 23:19 | 44.10905 | -77.36519 | 34694 ft | 461 kts | 53° |
| 2026-05-04 23:19 | 44.14395 | -77.29047 | 34694 ft | 460 kts | 53° |
| 2026-05-04 23:20 | 44.17872 | -77.21571 | 34702 ft | 460 kts | 53° |
| 2026-05-04 23:20 | 44.21335 | -77.14067 | 34704 ft | 460 kts | 53° |
| 2026-05-04 23:21 | 44.24787 | -77.06556 | 34714 ft | 460 kts | 53° |
| 2026-05-04 23:21 | 44.28242 | -76.99031 | 34707 ft | 460 kts | 53° |
| 2026-05-04 23:22 | 44.31697 | -76.91515 | 34711 ft | 460 kts | 53° |
| 2026-05-04 23:22 | 44.35149 | -76.83989 | 34707 ft | 460 kts | 53° |
| 2026-05-04 23:23 | 44.38588 | -76.76443 | 34713 ft | 460 kts | 53° |
| 2026-05-04 23:23 | 44.42024 | -76.68891 | 34708 ft | 460 kts | 53° |
| 2026-05-04 23:24 | 44.45434 | -76.61371 | 34716 ft | 461 kts | 53° |
| 2026-05-04 23:24 | 44.48885 | -76.53742 | 34710 ft | 461 kts | 53° |
| 2026-05-04 23:25 | 44.52311 | -76.46167 | 34712 ft | 460 kts | 53° |
| 2026-05-04 23:25 | 44.55734 | -76.38580 | 34701 ft | 460 kts | 53° |
| 2026-05-04 23:26 | 44.59147 | -76.30982 | 34619 ft | 461 kts | 53° |
| 2026-05-04 23:26 | 44.60847 | -76.27185 | 34379 ft | 458 kts | 53° |
| 2026-05-04 23:26 | 44.62534 | -76.23409 | 34138 ft | 455 kts | 53° |
| 2026-05-04 23:27 | 44.64047 | -76.19503 | 33904 ft | 457 kts | 63° |
| 2026-05-04 23:27 | 44.65270 | -76.15387 | 33671 ft | 456 kts | 63° |
| 2026-05-04 23:27 | 44.66482 | -76.11283 | 33395 ft | 454 kts | 63° |
| 2026-05-04 23:27 | 44.67690 | -76.07191 | 33112 ft | 452 kts | 63° |
| 2026-05-04 23:28 | 44.68870 | -76.03176 | 32834 ft | 449 kts | 63° |
| 2026-05-04 23:28 | 44.70071 | -75.99072 | 32559 ft | 447 kts | 64° |
| 2026-05-04 23:28 | 44.71231 | -75.95024 | 32295 ft | 445 kts | 65° |
| 2026-05-04 23:28 | 44.72338 | -75.90968 | 32015 ft | 444 kts | 65° |
| 2026-05-04 23:29 | 44.73409 | -75.86912 | 31747 ft | 442 kts | 66° |
| 2026-05-04 23:29 | 44.74452 | -75.82914 | 31499 ft | 439 kts | 66° |
| 2026-05-04 23:29 | 44.75501 | -75.78888 | 31242 ft | 437 kts | 66° |
| 2026-05-04 23:29 | 44.76551 | -75.74879 | 30978 ft | 435 kts | 66° |
| 2026-05-04 23:30 | 44.77600 | -75.70895 | 30719 ft | 433 kts | 66° |
| 2026-05-04 23:30 | 44.78654 | -75.66920 | 30474 ft | 431 kts | 66° |
| 2026-05-04 23:30 | 44.79703 | -75.62979 | 30223 ft | 429 kts | 66° |
| 2026-05-04 23:30 | 44.80749 | -75.59045 | 29970 ft | 428 kts | 66° |
| 2026-05-04 23:31 | 44.81787 | -75.55131 | 29721 ft | 426 kts | 66° |
| 2026-05-04 23:31 | 44.82819 | -75.51227 | 29433 ft | 424 kts | 66° |
| 2026-05-04 23:31 | 44.83842 | -75.47334 | 29149 ft | 423 kts | 66° |
| 2026-05-04 23:31 | 44.84876 | -75.43467 | 28851 ft | 420 kts | 65° |
| 2026-05-04 23:32 | 44.85944 | -75.39637 | 28563 ft | 418 kts | 64° |
| 2026-05-04 23:32 | 44.87029 | -75.35847 | 28286 ft | 416 kts | 64° |
| 2026-05-04 23:32 | 44.88118 | -75.32073 | 28012 ft | 414 kts | 64° |
| 2026-05-04 23:32 | 44.89190 | -75.28339 | 27681 ft | 408 kts | 64° |
| 2026-05-04 23:33 | 44.90244 | -75.24639 | 27255 ft | 405 kts | 64° |
| 2026-05-04 23:33 | 44.91283 | -75.20964 | 26846 ft | 401 kts | 64° |
| 2026-05-04 23:33 | 44.92307 | -75.17318 | 26423 ft | 398 kts | 64° |
| 2026-05-04 23:33 | 44.93317 | -75.13699 | 26004 ft | 395 kts | 64° |
| 2026-05-04 23:34 | 44.94316 | -75.10107 | 25586 ft | 392 kts | 64° |
| 2026-05-04 23:34 | 44.95313 | -75.06532 | 25142 ft | 390 kts | 64° |
| 2026-05-04 23:34 | 44.96302 | -75.02983 | 24708 ft | 388 kts | 64° |
| 2026-05-04 23:34 | 44.97285 | -74.99449 | 24257 ft | 386 kts | 64° |
| 2026-05-04 23:35 | 44.98274 | -74.95936 | 23804 ft | 384 kts | 62° |
| 2026-05-04 23:35 | 44.99488 | -74.92655 | 23346 ft | 381 kts | 55° |
| 2026-05-04 23:35 | 45.00800 | -74.89411 | 22805 ft | 380 kts | 56° |
| 2026-05-04 23:35 | 45.02104 | -74.86163 | 22322 ft | 379 kts | 56° |
| 2026-05-04 23:36 | 45.03393 | -74.82929 | 21854 ft | 377 kts | 56° |
| 2026-05-04 23:36 | 45.04674 | -74.79700 | 21381 ft | 376 kts | 56° |
| 2026-05-04 23:36 | 45.05948 | -74.76482 | 20905 ft | 375 kts | 56° |
| 2026-05-04 23:36 | 45.07220 | -74.73272 | 20431 ft | 374 kts | 56° |
| 2026-05-04 23:37 | 45.08491 | -74.70065 | 19956 ft | 373 kts | 56° |
| 2026-05-04 23:37 | 45.09761 | -74.66861 | 19487 ft | 373 kts | 56° |
| 2026-05-04 23:37 | 45.11030 | -74.63659 | 19013 ft | 373 kts | 56° |
| 2026-05-04 23:37 | 45.12307 | -74.60461 | 18538 ft | 373 kts | 55° |
| 2026-05-04 23:38 | 45.13638 | -74.57310 | 18071 ft | 372 kts | 54° |
| 2026-05-04 23:38 | 45.15007 | -74.54198 | 17562 ft | 372 kts | 53° |
| 2026-05-04 23:38 | 45.16378 | -74.51130 | 17272 ft | 365 kts | 53° |
| 2026-05-04 23:38 | 45.17723 | -74.48108 | 16918 ft | 361 kts | 53° |
| 2026-05-04 23:39 | 45.19053 | -74.45097 | 16455 ft | 360 kts | 54° |
| 2026-05-04 23:39 | 45.20374 | -74.42085 | 15963 ft | 360 kts | 54° |
| 2026-05-04 23:39 | 45.21687 | -74.39074 | 15531 ft | 357 kts | 55° |
| 2026-05-04 23:39 | 45.22991 | -74.36071 | 15089 ft | 359 kts | 55° |
| 2026-05-04 23:40 | 45.24301 | -74.33041 | 14617 ft | 360 kts | 55° |
| 2026-05-04 23:40 | 45.25613 | -74.29998 | 14151 ft | 362 kts | 55° |
| 2026-05-04 23:40 | 45.26930 | -74.26941 | 13682 ft | 363 kts | 56° |
| 2026-05-04 23:40 | 45.28248 | -74.23878 | 13216 ft | 363 kts | 56° |
| 2026-05-04 23:41 | 45.29540 | -74.20870 | 12741 ft | 362 kts | 56° |
| 2026-05-04 23:41 | 45.30701 | -74.18165 | 12270 ft | 352 kts | 56° |
| 2026-05-04 23:41 | 45.31947 | -74.15251 | 11851 ft | 339 kts | 56° |
| 2026-05-04 23:41 | 45.33159 | -74.12415 | 11406 ft | 333 kts | 56° |
| 2026-05-04 23:42 | 45.34357 | -74.09613 | 10977 ft | 330 kts | 56° |
| 2026-05-04 23:42 | 45.35556 | -74.06849 | 10564 ft | 329 kts | 53° |
| 2026-05-04 23:42 | 45.37025 | -74.04381 | 10144 ft | 325 kts | 39° |
| 2026-05-04 23:42 | 45.38681 | -74.02246 | 9865 ft | 319 kts | 38° |
| 2026-05-04 23:43 | 45.40340 | -74.00105 | 9374 ft | 322 kts | 39° |
| 2026-05-04 23:43 | 45.41973 | -73.97979 | 9124 ft | 315 kts | 39° |
| 2026-05-04 23:43 | 45.43579 | -73.95881 | 8767 ft | 312 kts | 39° |
| 2026-05-04 23:43 | 45.45174 | -73.93798 | 8381 ft | 310 kts | 38° |
| 2026-05-04 23:44 | 45.46762 | -73.91730 | 8046 ft | 308 kts | 38° |
| 2026-05-04 23:44 | 45.48350 | -73.89666 | 8005 ft | 309 kts | 38° |
| 2026-05-04 23:44 | 45.49903 | -73.87640 | 8003 ft | 300 kts | 38° |
| 2026-05-04 23:44 | 45.51395 | -73.85681 | 7994 ft | 283 kts | 38° |
| 2026-05-04 23:45 | 45.52804 | -73.83826 | 8003 ft | 269 kts | 38° |
| 2026-05-04 23:45 | 45.54173 | -73.82028 | 7845 ft | 268 kts | 38° |
| 2026-05-04 23:45 | 45.55537 | -73.80241 | 7568 ft | 264 kts | 38° |
| 2026-05-04 23:45 | 45.56886 | -73.78473 | 7293 ft | 263 kts | 38° |
| 2026-05-04 23:46 | 45.58232 | -73.76712 | 7016 ft | 262 kts | 38° |
| 2026-05-04 23:46 | 45.59571 | -73.74959 | 6750 ft | 261 kts | 38° |
| 2026-05-04 23:46 | 45.60908 | -73.73214 | 6484 ft | 260 kts | 38° |
| 2026-05-04 23:46 | 45.62244 | -73.71469 | 6218 ft | 259 kts | 38° |
| 2026-05-04 23:47 | 45.63569 | -73.69732 | 5943 ft | 258 kts | 38° |
| 2026-05-04 23:47 | 45.64886 | -73.68004 | 5659 ft | 256 kts | 38° |
| 2026-05-04 23:47 | 45.66209 | -73.66261 | 5227 ft | 261 kts | 39° |
| 2026-05-04 23:47 | 45.67559 | -73.64482 | 4747 ft | 267 kts | 39° |
| 2026-05-04 23:48 | 45.68851 | -73.62535 | 4270 ft | 274 kts | 57° |
| 2026-05-04 23:48 | 45.69457 | -73.60035 | 3969 ft | 270 kts | 88° |
| 2026-05-04 23:48 | 45.69178 | -73.57463 | 3642 ft | 258 kts | 119° |
| 2026-05-04 23:48 | 45.68111 | -73.55519 | 3314 ft | 244 kts | 150° |
| 2026-05-04 23:49 | 45.66597 | -73.54701 | 3028 ft | 226 kts | 182° |
| 2026-05-04 23:49 | 45.65104 | -73.54923 | 2996 ft | 207 kts | 195° |
| 2026-05-04 23:49 | 45.63750 | -73.55311 | 2998 ft | 192 kts | 196° |
| 2026-05-04 23:49 | 45.62467 | -73.55696 | 2999 ft | 185 kts | 199° |
| 2026-05-04 23:50 | 45.61350 | -73.56465 | 3003 ft | 177 kts | 222° |
| 2026-05-04 23:50 | 45.60448 | -73.57642 | 3036 ft | 176 kts | 225° |
| 2026-05-04 23:50 | 45.59856 | -73.58428 | 3016 ft | 175 kts | 225° |
| 2026-05-04 23:50 | 45.58969 | -73.59600 | 2892 ft | 170 kts | 225° |
| 2026-05-04 23:51 | 45.58124 | -73.60713 | 2711 ft | 162 kts | 225° |
| 2026-05-04 23:51 | 45.57304 | -73.61794 | 2506 ft | 159 kts | 224° |
| 2026-05-04 23:51 | 45.56487 | -73.62870 | 2296 ft | 158 kts | 224° |
| 2026-05-04 23:51 | 45.55707 | -73.63895 | 2094 ft | 145 kts | 224° |
| 2026-05-04 23:52 | 45.55007 | -73.64817 | 1906 ft | 134 kts | 224° |
| 2026-05-04 23:52 | 45.54331 | -73.65706 | 1746 ft | 128 kts | 224° |
| 2026-05-04 23:52 | 45.53686 | -73.66554 | 1578 ft | 127 kts | 223° |
| 2026-05-04 23:52 | 45.53035 | -73.67409 | 1405 ft | 127 kts | 223° |
| 2026-05-04 23:53 | 45.52384 | -73.68266 | 1231 ft | 128 kts | 223° |
| 2026-05-04 23:53 | 45.51723 | -73.69134 | 1056 ft | 130 kts | 223° |
| 2026-05-04 23:53 | 45.51052 | -73.70018 | 881 ft | 132 kts | 222° |
| 2026-05-04 23:53 | 45.50373 | -73.70914 | 718 ft | 134 kts | 221° |
| 2026-05-04 23:54 | 45.49674 | -73.71806 | 521 ft | 135 kts | 221° |
| 2026-05-04 23:54 | 45.48989 | -73.72720 | 328 ft | 134 kts | 223° |
| 2026-05-04 23:54 | 45.48305 | -73.73636 | 141 ft | 135 kts | 221° |
| 2026-05-04 23:54 | 45.47671 | -73.74460 | 111 ft | 107 kts | 222° |
| 2026-05-04 23:55 | 45.47269 | -73.74983 | 114 ft | 47 kts | 221° |
| 2026-05-04 23:55 | 45.47086 | -73.75220 | 110 ft | 27 kts | 224° |
| 2026-05-04 23:55 | 45.46854 | -73.75512 | 106 ft | 13 kts | 210° |
| 2026-05-04 23:56 | 45.46771 | -73.75569 | 108 ft | 14 kts | 201° |
| 2026-05-04 23:56 | 45.46698 | -73.75602 | 107 ft | 11 kts | 194° |
| 2026-05-04 23:56 | 45.46610 | -73.75631 | 106 ft | 15 kts | 192° |
| 2026-05-04 23:56 | 45.46518 | -73.75660 | 105 ft | 11 kts | 193° |
| 2026-05-04 23:57 | 45.46450 | -73.75681 | 104 ft | 11 kts | 192° |
| 2026-05-04 23:57 | 45.46367 | -73.75707 | 104 ft | 14 kts | 192° |
| 2026-05-04 23:57 | 45.46273 | -73.75728 | 104 ft | 13 kts | 183° |
| 2026-05-04 23:57 | 45.46189 | -73.75725 | 103 ft | 11 kts | 176° |
| 2026-05-04 23:58 | 45.46133 | -73.75655 | 102 ft | 12 kts | 94° |
| 2026-05-04 23:58 | 45.46136 | -73.75539 | 102 ft | 11 kts | 88° |
| 2026-05-04 23:58 | 45.46139 | -73.75435 | 102 ft | 10 kts | 87° |
| 2026-05-04 23:58 | 45.46142 | -73.75342 | 101 ft | 9 kts | 88° |
| 2026-05-04 23:59 | 45.46144 | -73.75256 | 101 ft | 9 kts | 88° |
| 2026-05-04 23:59 | 45.46146 | -73.75158 | 102 ft | 9 kts | 88° |
| 2026-05-04 23:59 | 45.46148 | -73.75080 | 103 ft | 8 kts | 88° |
| 2026-05-04 23:59 | 45.46152 | -73.74981 | 105 ft | 12 kts | 87° |
| 2026-05-05 00:00 | 45.46155 | -73.74869 | 104 ft | 11 kts | 88° |
| 2026-05-05 00:00 | 45.46157 | -73.74800 | 104 ft | 10 kts | 88° |
| 2026-05-05 00:00 | 45.46160 | -73.74674 | 104 ft | 9 kts | 88° |
| 2026-05-05 00:00 | 45.46154 | -73.74591 | 102 ft | 8 kts | 111° |
| 2026-05-05 00:01 | 45.46123 | -73.74541 | 104 ft | 6 kts | 146° |
| 2026-05-05 00:01 | 45.46088 | -73.74521 | 104 ft | 7 kts | 165° |
| 2026-05-05 00:01 | 45.46028 | -73.74512 | 104 ft | 9 kts | 176° |
| 2026-05-05 00:01 | 45.45970 | -73.74535 | 104 ft | 8 kts | 206° |
| 2026-05-05 00:02 | 45.45918 | -73.74546 | 105 ft | 7 kts | 178° |
| 2026-05-05 00:02 | 45.45894 | -73.74545 | 105 ft | 1 kts | 178° |
| 2026-05-05 00:02 | 45.45888 | -73.74544 | 105 ft | 0 kts | 178° |
| 2026-05-05 00:02 | 45.45887 | -73.74544 | 105 ft | 0 kts | 178° |
| 2026-05-05 00:03 | 45.45885 | -73.74544 | 105 ft | 0 kts | 178° |